Time;durP1;ratioP1;P1;durP2;ratioP2;P2;SDS_P1;SDS_P2;PMS_P1;PMS_P2;Temp;Humidity;BMP_temperature;BMP_pressure;BME280_temperature;BME280_humidity;BME280_pressure;Samples;Min_cycle;Max_cycle;Signal;HPM_P1;HPM_P2
2023/03/26 00:01:35;;;;;;;;;;;;;;;8.88;67.25;99010.06;5117691;28;19966;-65
2023/03/26 00:04:05;;;;;;;;;;;;;;;8.90;67.23;99012.63;5117621;28;20010;-65
2023/03/26 00:06:38;;;;;;;;;;;;;;;8.83;67.53;99010.97;5117653;28;19919;-65
2023/03/26 00:09:08;;;;;;;;;;;;;;;8.74;67.62;99010.16;5117906;28;19920;-65
2023/03/26 00:11:36;;;;;;;;;;;;;;;8.63;67.39;99016.13;5117502;27;19969;-64
2023/03/26 00:14:05;;;;;;;;;;;;;;;8.63;67.77;99005.97;5117325;28;19963;-64
2023/03/26 00:16:34;;;;;;;;;;;;;;;8.55;68.44;99015.31;5117424;28;19920;-65
2023/03/26 00:19:03;;;;;;;;;;;;;;;8.52;68.70;99007.69;5117692;28;20014;-65
2023/03/26 00:21:31;;;;;;;;;;;;;;;8.51;68.99;99003.47;5117322;28;19920;-65
2023/03/26 00:24:03;;;;;;;;;;;;;;;8.61;68.90;99005.94;5117192;28;19919;-64
2023/03/26 00:26:34;;;;;;;;;;;;;;;8.65;68.80;99001.72;5117225;27;19950;-65
2023/03/26 00:29:03;;;;;;;;;;;;;;;8.63;69.34;98998.34;5117209;28;19969;-65
2023/03/26 00:31:31;;;;;;;;;;;;;;;8.67;69.40;98994.91;5115513;28;19949;-64
2023/03/26 00:34:02;;;;;;;;;;;;;;;8.69;69.58;98990.66;5115801;28;19927;-64
2023/03/26 00:36:34;;;;;;;;;;;;;;;8.73;69.50;98987.28;5115875;28;19955;-65
2023/03/26 00:39:05;;;;;;;;;;;;;;;8.76;69.06;98994.88;5116987;27;20377;-65
2023/03/26 00:41:45;;;;;;;;;;;;;;;8.75;69.42;98990.66;5117731;28;19926;-65
2023/03/26 00:44:15;;;;;;;;;;;;;;;8.69;69.43;98999.13;5115782;28;19926;-65
2023/03/26 00:46:43;;;;;;;;;;;;;;;8.65;69.32;98991.53;5116848;28;20011;-64
2023/03/26 00:49:13;;;;;;;;;;;;;;;8.73;69.25;98992.34;5117069;28;20347;-64
2023/03/26 00:51:42;;;;;;;;;;;;;;;8.76;69.47;98995.72;5116724;28;20428;-65
2023/03/26 00:54:12;;;;;;;;;;;;;;;8.74;69.45;98994.03;5115429;28;20373;-65
2023/03/26 00:56:41;;;;;;;;;;;;;;;8.72;69.67;98988.09;5115775;28;19925;-65
2023/03/26 00:59:09;;;;;;;;;;;;;;;8.73;68.95;98985.53;5116608;28;19958;-65
2023/03/26 01:01:39;;;;;;;;;;;;;;;8.71;69.66;98977.09;5115311;28;19968;-64
2023/03/26 01:04:18;;;;;;;;;;;;;;;8.74;69.45;98981.31;5116467;28;19956;-64
2023/03/26 01:06:47;;;;;;;;;;;;;;;8.63;70.20;98967.81;5116516;28;20384;-64
2023/03/26 01:09:19;;;;;;;;;;;;;;;8.59;69.71;98981.41;5116788;28;19926;-64
2023/03/26 01:11:49;;;;;;;;;;;;;;;8.56;69.68;98972.09;5116345;28;19965;-64
2023/03/26 01:14:19;;;;;;;;;;;;;;;8.52;70.08;98982.25;5116376;28;20031;-65
2023/03/26 01:16:50;;;;;;;;;;;;;;;8.49;69.78;98980.59;5116302;28;19931;-65
2023/03/26 01:19:23;;;;;;;;;;;;;;;8.44;70.33;98976.38;5115082;28;19920;-65
2023/03/26 01:21:52;;;;;;;;;;;;;;;8.28;70.74;98982.34;5114988;28;19964;-64
2023/03/26 01:24:22;;;;;;;;;;;;;;;8.18;70.58;98983.19;5115882;28;19919;-64
2023/03/26 01:27:03;;;;;;;;;;;;;;;8.11;70.84;98984.88;5116087;28;20016;-64
2023/03/26 01:29:36;;;;;;;;;;;;;;;8.00;70.49;98979.84;5116050;27;19919;-64
2023/03/26 01:32:10;;;;;;;;;;;;;;;7.97;70.11;98984.91;5116313;28;19926;-65
2023/03/26 01:34:48;;;;;;;;;;;;;;;7.97;70.70;98984.91;5114705;28;20022;-64
2023/03/26 01:37:21;;;;;;;;;;;;;;;7.92;71.05;98986.63;5115888;28;19920;-65
2023/03/26 01:39:56;;;;;;;;;;;;;;;7.95;70.36;98986.63;5116136;28;20349;-65
2023/03/26 01:42:32;;;;;;;;;;;;;;;7.96;70.47;98978.16;5116072;28;20289;-64
2023/03/26 01:45:03;;;;;;;;;;;;;;;7.94;70.14;98979.00;5115198;27;20022;-65
2023/03/26 01:47:32;;;;;;;;;;;;;;;7.97;70.43;98979.84;5116059;28;20022;-64
2023/03/26 01:50:01;;;;;;;;;;;;;;;7.96;69.97;98982.41;5114771;28;20015;-64
2023/03/26 01:52:30;;;;;;;;;;;;;;;7.87;69.91;98978.16;5115869;28;20026;-64
2023/03/26 01:55:01;;;;;;;;;;;;;;;7.70;69.82;98979.03;5115710;28;20350;-65
2023/03/26 01:57:34;;;;;;;;;;;;;;;7.65;70.83;98971.44;5114252;28;19919;-65
2023/03/26 02:00:16;;;;;;;;;;;;;;;7.60;70.43;98978.19;5115842;28;19920;-65
2023/03/26 02:02:56;;;;;;;;;;;;;;;7.67;70.84;98973.94;5115378;28;19920;-65
2023/03/26 02:05:29;;;;;;;;;;;;;;;7.66;70.65;98968.03;5115914;28;19977;-64
2023/03/26 02:08:04;;;;;;;;;;;;;;;7.69;71.28;98975.66;5114176;28;19924;-65
2023/03/26 02:10:38;;;;;;;;;;;;;;;7.68;71.47;98965.50;5115284;28;20010;-65
2023/03/26 02:13:07;;;;;;;;;;;;;;;7.70;71.26;98964.63;5115446;27;20327;-65
2023/03/26 02:15:36;;;;;;;;;;;;;;;7.84;71.24;98957.84;5114285;28;20437;-65
2023/03/26 02:18:04;;;;;;;;;;;;;;;8.03;71.27;98956.13;5115023;28;19933;-64
2023/03/26 02:20:33;;;;;;;;;;;;;;;8.13;70.95;98949.31;5113837;28;19919;-65
2023/03/26 02:23:02;;;;;;;;;;;;;;;8.22;71.06;98949.28;5114805;28;19945;-65
2023/03/26 02:25:34;;;;;;;;;;;;;;;8.23;70.81;98945.91;5115225;28;20307;-65
2023/03/26 02:28:04;;;;;;;;;;;;;;;8.24;70.29;98947.56;5113624;28;19919;-65
2023/03/26 02:30:33;;;;;;;;;;;;;;;8.27;71.09;98948.47;5114069;28;20006;-65
2023/03/26 02:33:02;;;;;;;;;;;;;;;8.32;70.30;98940.81;5114832;28;19923;-65
2023/03/26 02:35:38;;;;;;;;;;;;;;;8.35;70.20;98948.44;5113967;28;19946;-66
2023/03/26 02:38:08;;;;;;;;;;;;;;;8.29;69.52;98948.44;5113766;28;19920;-65
2023/03/26 02:40:37;;;;;;;;;;;;;;;8.22;70.63;98951.81;5113554;28;19959;-65
2023/03/26 02:43:07;;;;;;;;;;;;;;;8.08;70.33;98955.28;5113522;28;19949;-65
2023/03/26 02:45:37;;;;;;;;;;;;;;;7.91;70.73;98959.53;5114677;28;19923;-65
2023/03/26 02:48:17;;;;;;;;;;;;;;;7.69;70.98;98962.94;5115113;28;19927;-65
2023/03/26 02:50:55;;;;;;;;;;;;;;;7.43;71.62;98957.03;5113425;28;19919;-65
2023/03/26 02:53:36;;;;;;;;;;;;;;;7.30;72.21;98953.66;5114821;28;20006;-65
2023/03/26 02:56:25;;;;;;;;;;;;;;;7.28;72.30;98950.25;5114670;28;19966;-65
2023/03/26 02:59:06;;;;;;;;;;;;;;;7.28;72.59;98951.94;5114454;28;19919;-65
2023/03/26 03:01:41;;;;;;;;;;;;;;;7.28;73.01;98954.50;5114474;28;19923;-65
2023/03/26 03:04:13;;;;;;;;;;;;;;;7.21;72.43;98953.66;5113571;28;19919;-65
2023/03/26 03:06:43;;;;;;;;;;;;;;;7.19;72.23;98957.88;5114397;28;19919;-65
2023/03/26 03:09:12;;;;;;;;;;;;;;;7.14;72.75;98956.16;5113169;28;20448;-65
2023/03/26 03:12:01;;;;;;;;;;;;;;;7.02;72.32;98961.22;5115061;28;20345;-65
2023/03/26 03:14:32;;;;;;;;;;;;;;;6.92;72.11;98970.50;5113310;28;19919;-65
2023/03/26 03:17:01;;;;;;;;;;;;;;;6.85;72.08;98975.56;5114386;28;20014;-65
2023/03/26 03:19:30;;;;;;;;;;;;;;;6.74;72.76;98966.22;5113318;28;20277;-65
2023/03/26 03:21:59;;;;;;;;;;;;;;;6.69;72.87;98975.50;5113389;28;20022;-65
2023/03/26 03:24:27;;;;;;;;;;;;;;;6.63;72.46;98972.97;5112947;28;19919;-66
2023/03/26 03:26:56;;;;;;;;;;;;;;;6.63;72.27;98965.34;5113289;28;20308;-65
2023/03/26 03:29:37;;;;;;;;;;;;;;;6.46;72.46;98972.03;5114185;28;19919;-65
2023/03/26 03:32:17;;;;;;;;;;;;;;;6.46;72.94;98964.44;5114433;28;19920;-65
2023/03/26 03:34:48;;;;;;;;;;;;;;;6.47;72.68;98961.09;5114083;28;20388;-65
2023/03/26 03:37:18;;;;;;;;;;;;;;;6.47;72.94;98961.09;5114726;28;20350;-65
2023/03/26 03:39:53;;;;;;;;;;;;;;;6.46;73.10;98969.50;5114496;28;20289;-65
2023/03/26 03:42:26;;;;;;;;;;;;;;;6.35;72.83;98961.03;5113468;28;20357;-66
2023/03/26 03:44:59;;;;;;;;;;;;;;;6.28;73.35;98974.50;5114029;28;19920;-65
2023/03/26 03:47:39;;;;;;;;;;;;;;;6.26;73.44;98976.19;5114089;28;19955;-65
2023/03/26 03:50:08;;;;;;;;;;;;;;;6.22;72.93;98964.34;5112829;28;20007;-65
2023/03/26 03:52:41;;;;;;;;;;;;;;;6.20;73.51;98975.28;5112823;28;19920;-65
2023/03/26 03:55:12;;;;;;;;;;;;;;;6.07;73.39;98980.28;5112680;28;19927;-65
2023/03/26 03:57:52;;;;;;;;;;;;;;;6.00;73.42;98980.25;5114042;28;20407;-65
2023/03/26 04:00:25;;;;;;;;;;;;;;;5.98;73.24;98979.41;5113957;28;19920;-64
2023/03/26 04:03:14;;;;;;;;;;;;;;;6.08;74.16;98965.94;5114095;28;19920;-65
2023/03/26 04:05:48;;;;;;;;;;;;;;;6.15;74.37;98972.75;5113052;28;19973;-65
2023/03/26 04:08:17;;;;;;;;;;;;;;;6.14;74.50;98960.94;5116611;28;19927;-65
2023/03/26 04:10:51;;;;;;;;;;;;;;;6.24;74.84;98962.66;5117905;28;19946;-65
2023/03/26 04:13:42;;;;;;;;;;;;;;;6.27;74.78;98962.66;5088354;28;19919;-65
2023/03/26 04:16:24;;;;;;;;;;;;;;;6.28;74.86;98959.31;5117791;27;20014;-65
2023/03/26 04:18:53;;;;;;;;;;;;;;;6.29;74.30;98961.00;5118144;28;19963;-65
2023/03/26 04:21:23;;;;;;;;;;;;;;;6.16;74.42;98959.25;5117358;28;19920;-65
2023/03/26 04:23:53;;;;;;;;;;;;;;;5.93;74.56;98960.78;5115966;28;19919;-65
2023/03/26 04:26:46;;;;;;;;;;;;;;;5.85;nan;98972.56;5117226;28;19954;-64
2023/03/26 04:29:20;;;;;;;;;;;;;;;5.68;74.74;98976.63;5117296;28;19926;-64
2023/03/26 04:31:51;;;;;;;;;;;;;;;5.60;74.68;98973.19;5117237;27;19958;-64
2023/03/26 04:34:22;;;;;;;;;;;;;;;5.63;75.00;98965.63;5115921;28;19920;-64
2023/03/26 04:37:15;;;;;;;;;;;;;;;5.67;74.80;98967.34;5117043;28;19920;-64
2023/03/26 04:39:49;;;;;;;;;;;;;;;5.69;74.53;98960.59;5116146;28;19949;-64
2023/03/26 04:42:32;;;;;;;;;;;;;;;5.68;74.83;98956.38;5117024;28;20007;-64
2023/03/26 04:45:21;;;;;;;;;;;;;;;5.67;75.05;98958.06;5117134;28;20014;-64
2023/03/26 04:47:58;;;;;;;;;;;;;;;5.79;75.44;98954.75;5115745;28;19973;-65
2023/03/26 04:50:27;;;;;;;;;;;;;;;5.77;75.33;98954.75;5115683;28;19973;-64
2023/03/26 04:52:57;;;;;;;;;;;;;;;5.77;75.49;98948.84;5115642;28;19926;-64
2023/03/26 04:55:41;;;;;;;;;;;;;;;5.79;75.25;98953.09;5116617;28;19923;-64
2023/03/26 04:58:18;;;;;;;;;;;;;;;5.74;75.48;98949.69;5116683;28;19920;-65
2023/03/26 05:01:00;;;;;;;;;;;;;;;5.81;75.92;98942.97;5116662;28;19955;-65
2023/03/26 05:03:44;;;;;;;;;;;;;;;5.89;75.80;98941.38;5116625;28;19920;-64
2023/03/26 05:06:17;;;;;;;;;;;;;;;5.88;75.88;98937.97;5116584;28;19920;-65
2023/03/26 05:08:46;;;;;;;;;;;;;;;5.94;75.89;98942.25;5116861;28;19963;-65
2023/03/26 05:11:31;;;;;;;;;;;;;;;5.93;76.10;98940.53;5116366;28;19931;-65
2023/03/26 05:14:00;;;;;;;;;;;;;;;5.92;76.10;98948.97;5115156;28;20014;-65
2023/03/26 05:16:29;;;;;;;;;;;;;;;5.97;76.23;98944.78;5115042;28;19919;-66
2023/03/26 05:19:05;;;;;;;;;;;;;;;5.98;75.71;98946.47;5114734;28;20269;-66
2023/03/26 05:21:34;;;;;;;;;;;;;;;6.00;76.23;98947.31;5116561;28;20018;-66
2023/03/26 05:24:05;;;;;;;;;;;;;;;6.05;76.01;98950.72;5116152;28;19920;-66
2023/03/26 05:26:34;;;;;;;;;;;;;;;6.17;76.22;98940.66;5115249;28;20289;-66
2023/03/26 05:29:03;;;;;;;;;;;;;;;6.21;76.09;98947.47;5116431;28;19927;-66
2023/03/26 05:31:36;;;;;;;;;;;;;;;6.33;75.51;98951.72;5115987;28;20391;-65
2023/03/26 05:34:06;;;;;;;;;;;;;;;6.44;75.54;98950.94;5115134;28;19959;-64
2023/03/26 05:36:35;;;;;;;;;;;;;;;6.51;75.85;98951.78;5114999;28;19919;-64
2023/03/26 05:39:15;;;;;;;;;;;;;;;6.65;75.34;98945.06;5115893;28;19923;-64
2023/03/26 05:42:03;;;;;;;;;;;;;;;6.84;75.57;98951.06;5115541;28;20002;-64
2023/03/26 05:44:44;;;;;;;;;;;;;;;7.01;76.12;98954.44;5114881;28;20284;-64
2023/03/26 05:47:21;;;;;;;;;;;;;;;7.10;75.94;98950.22;5115757;28;19924;-64
2023/03/26 05:49:51;;;;;;;;;;;;;;;7.24;74.95;98952.81;5115635;28;20365;-64
2023/03/26 05:52:20;;;;;;;;;;;;;;;7.31;75.52;98946.88;5115641;28;19920;-64
2023/03/26 05:55:16;;;;;;;;;;;;;;;7.47;75.38;98943.50;5099114;28;19923;-64
2023/03/26 05:57:55;;;;;;;;;;;;;;;7.55;75.87;98944.34;5115488;28;19927;-64
2023/03/26 06:00:37;;;;;;;;;;;;;;;7.56;75.29;98946.03;5115450;28;19927;-64
2023/03/26 06:03:11;;;;;;;;;;;;;;;7.56;75.68;98946.03;5115634;28;20327;-64
2023/03/26 06:05:51;;;;;;;;;;;;;;;7.50;75.29;98938.41;5115377;28;20011;-63
2023/03/26 06:08:40;;;;;;;;;;;;;;;7.51;75.23;98947.72;5115323;28;20014;-64
2023/03/26 06:11:09;;;;;;;;;;;;;;;7.49;75.66;98946.88;5114189;28;20406;-65
2023/03/26 06:13:40;;;;;;;;;;;;;;;7.49;75.44;98940.94;5115531;28;20369;-65
2023/03/26 06:16:09;;;;;;;;;;;;;;;7.59;75.72;98945.16;5113795;28;19920;-65
2023/03/26 06:19:08;;;;;;;;;;;;;;;7.73;75.74;98948.53;5115395;28;19984;-64
2023/03/26 06:21:58;;;;;;;;;;;;;;;7.90;75.52;98951.91;5114673;28;19927;-66
2023/03/26 06:24:33;;;;;;;;;;;;;;;7.96;75.64;98957.84;5114750;28;19919;-65
2023/03/26 06:27:12;;;;;;;;;;;;;;;7.93;75.18;98962.91;5115344;28;19970;-64
2023/03/26 06:30:03;;;;;;;;;;;;;;;7.86;75.48;98961.25;5114787;28;19919;-64
2023/03/26 06:32:52;;;;;;;;;;;;;;;7.77;75.82;98961.25;5114778;28;19924;-64
2023/03/26 06:35:25;;;;;;;;;;;;;;;7.75;75.88;98974.81;5115167;28;20357;-64
2023/03/26 06:37:55;;;;;;;;;;;;;;;7.73;75.93;98973.94;5113930;28;20010;-65
2023/03/26 06:40:24;;;;;;;;;;;;;;;7.71;75.82;98975.63;5113310;28;20280;-64
2023/03/26 06:43:05;;;;;;;;;;;;;;;7.71;75.82;98981.56;5114652;28;20372;-66
2023/03/26 06:45:50;;;;;;;;;;;;;;;7.74;76.56;98976.50;5114602;28;19920;-64
2023/03/26 06:48:30;;;;;;;;;;;;;;;7.78;75.83;98982.41;5114891;28;19919;-64
2023/03/26 06:51:09;;;;;;;;;;;;;;;7.81;75.93;98983.25;5114564;28;20006;-65
2023/03/26 06:53:50;;;;;;;;;;;;;;;7.90;75.84;98968.00;5114474;28;19972;-64
2023/03/26 06:56:30;;;;;;;;;;;;;;;8.01;76.07;98976.44;5114413;28;19927;-64
2023/03/26 06:59:11;;;;;;;;;;;;;;;8.09;76.42;98979.81;5114787;28;19920;-64
2023/03/26 07:01:51;;;;;;;;;;;;;;;8.18;76.42;98980.66;5114456;28;19929;-64
2023/03/26 07:04:30;;;;;;;;;;;;;;;8.35;76.10;98971.31;5114412;28;19923;-66
2023/03/26 07:07:10;;;;;;;;;;;;;;;8.71;75.21;98968.59;5114754;28;20445;-64
2023/03/26 07:09:51;;;;;;;;;;;;;;;8.92;74.39;98965.97;5114787;28;19920;-64
2023/03/26 07:12:31;;;;;;;;;;;;;;;9.19;74.36;98960.69;5114339;28;19919;-64
2023/03/26 07:15:10;;;;;;;;;;;;;;;9.44;74.02;98967.31;5114683;28;19949;-64
2023/03/26 07:17:39;;;;;;;;;;;;;;;9.72;73.73;98967.06;5114309;28;19942;-65
2023/03/26 07:20:30;;;;;;;;;;;;;;;10.14;73.31;98961.59;5113063;28;20381;-66
2023/03/26 07:23:00;;;;;;;;;;;;;;;10.54;71.91;98967.91;5112621;28;19919;-64
2023/03/26 07:25:36;;;;;;;;;;;;;;;11.00;70.22;98968.16;5112840;28;19923;-64
2023/03/26 07:28:20;;;;;;;;;;;;;;;11.33;68.50;98956.59;5113843;28;19920;-64
2023/03/26 07:31:21;;;;;;;;;;;;;;;11.64;67.21;98955.25;5110731;28;19919;-64
2023/03/26 07:34:12;;;;;;;;;;;;;;;11.98;66.17;98953.81;5112844;28;19927;-65
2023/03/26 07:36:56;;;;;;;;;;;;;;;12.04;64.75;98958.81;5113330;28;19965;-64
2023/03/26 07:39:51;;;;;;;;;;;;;;;11.97;64.68;98956.44;5084836;28;19924;-64
2023/03/26 07:42:40;;;;;;;;;;;;;;;11.83;63.93;98959.19;5114694;28;19964;-64
2023/03/26 07:45:33;;;;;;;;;;;;;;;11.75;64.33;98950.84;5087358;28;20266;-64
2023/03/26 07:48:14;;;;;;;;;;;;;;;11.59;64.88;98948.53;5096540;28;20010;-63
2023/03/26 07:50:59;;;;;;;;;;;;;;;11.55;65.39;98947.72;5098244;28;19920;-64
2023/03/26 07:53:43;;;;;;;;;;;;;;;11.60;65.78;98956.16;5097847;28;19920;-64
2023/03/26 07:56:37;;;;;;;;;;;;;;;11.50;65.88;98943.56;5097273;28;19920;-64
2023/03/26 07:59:27;;;;;;;;;;;;;;;11.40;65.85;98942.88;5097297;28;19920;-64
2023/03/26 08:02:21;;;;;;;;;;;;;;;11.35;66.14;98939.53;5097627;28;20278;-64
2023/03/26 08:05:09;;;;;;;;;;;;;;;11.39;66.33;98936.94;5097197;28;20014;-64
2023/03/26 08:07:54;;;;;;;;;;;;;;;11.42;66.35;98934.31;5096490;28;20370;-64
2023/03/26 08:10:29;;;;;;;;;;;;;;;11.65;66.08;98931.38;5097354;28;19924;-64
2023/03/26 08:13:07;;;;;;;;;;;;;;;11.72;65.45;98930.44;5096381;28;19924;-63
2023/03/26 08:15:40;;;;;;;;;;;;;;;11.73;64.31;98928.72;5097263;28;19919;-64
2023/03/26 08:18:18;;;;;;;;;;;;;;;11.84;64.37;98927.66;5103910;28;19973;-64
2023/03/26 08:20:49;;;;;;;;;;;;;;;12.14;63.39;98917.75;5117166;28;20373;-64
2023/03/26 08:23:22;;;;;;;;;;;;;;;12.52;62.42;98913.56;5117118;28;19920;-64
2023/03/26 08:25:55;;;;;;;;;;;;;;;13.02;61.28;98906.47;5117328;27;19919;-64
2023/03/26 08:28:31;;;;;;;;;;;;;;;13.29;59.69;98906.69;5117223;28;19923;-64
2023/03/26 08:31:01;;;;;;;;;;;;;;;13.47;58.19;98904.53;5117394;28;19920;-64
2023/03/26 08:33:31;;;;;;;;;;;;;;;13.54;57.01;98900.94;5117508;28;20010;-64
2023/03/26 08:35:59;;;;;;;;;;;;;;;13.44;56.32;98906.31;5117406;28;20420;-65
2023/03/26 08:38:28;;;;;;;;;;;;;;;13.24;55.64;98900.84;5116760;28;20346;-65
2023/03/26 08:41:18;;;;;;;;;;;;;;;13.05;55.13;98899.53;5116604;28;19919;-63
2023/03/26 08:43:58;;;;;;;;;;;;;;;12.88;55.35;98898.25;5117482;28;19976;-63
2023/03/26 08:46:45;;;;;;;;;;;;;;;12.77;55.70;98901.03;5117082;28;19923;-64
2023/03/26 08:49:24;;;;;;;;;;;;;;;12.62;57.05;98906.53;5076794;28;19923;-63
2023/03/26 08:52:06;;;;;;;;;;;;;;;12.53;57.98;98899.00;5117033;28;19942;-64
2023/03/26 08:54:46;;;;;;;;;;;;;;;12.40;58.64;98895.88;5116279;28;19923;-64
2023/03/26 08:57:29;;;;;;;;;;;;;;;12.30;59.25;98904.63;5115695;28;20385;-64
2023/03/26 09:00:15;;;;;;;;;;;;;;;12.19;59.98;98905.72;5116534;28;19920;-64
2023/03/26 09:02:54;;;;;;;;;;;;;;;12.07;60.86;98907.63;5103397;28;19965;-64
2023/03/26 09:05:32;;;;;;;;;;;;;;;12.03;61.46;98900.03;5116510;28;19927;-64
2023/03/26 09:08:21;;;;;;;;;;;;;;;12.07;61.51;98902.50;5116713;28;19920;-63
2023/03/26 09:10:57;;;;;;;;;;;;;;;12.16;61.77;98895.53;5082914;28;19964;-64
2023/03/26 09:13:46;;;;;;;;;;;;;;;12.23;61.63;98894.53;5116667;28;19977;-63
2023/03/26 09:16:23;;;;;;;;;;;;;;;12.31;61.32;98897.78;5116494;28;19920;-63
2023/03/26 09:19:02;;;;;;;;;;;;;;;12.33;60.97;98880.69;5104749;28;19965;-63
2023/03/26 09:21:42;;;;;;;;;;;;;;;12.38;60.96;98886.56;5107234;28;19920;-63
2023/03/26 09:24:26;;;;;;;;;;;;;;;12.46;61.03;98882.09;5115411;27;19969;-64
2023/03/26 09:27:00;;;;;;;;;;;;;;;12.53;60.58;98874.25;5113139;28;19926;-63
2023/03/26 09:29:40;;;;;;;;;;;;;;;12.68;60.61;98870.53;5115994;28;19919;-63
2023/03/26 09:32:23;;;;;;;;;;;;;;;13.10;59.85;98859.31;5116262;28;20334;-64
2023/03/26 09:35:06;;;;;;;;;;;;;;;13.23;59.16;98865.84;5115950;28;20297;-64
2023/03/26 09:37:42;;;;;;;;;;;;;;;13.25;58.70;98869.19;5115994;28;20277;-63
2023/03/26 09:40:32;;;;;;;;;;;;;;;13.22;58.15;98864.13;5116224;28;20296;-63
2023/03/26 09:43:10;;;;;;;;;;;;;;;13.31;57.43;98866.50;5115999;28;20357;-63
2023/03/26 09:45:46;;;;;;;;;;;;;;;13.42;56.29;98867.06;5115956;28;19928;-63
2023/03/26 09:48:30;;;;;;;;;;;;;;;13.41;55.77;98859.44;5115880;28;19920;-63
2023/03/26 09:51:12;;;;;;;;;;;;;;;13.38;55.76;98855.22;5115960;28;20289;-63
2023/03/26 09:53:52;;;;;;;;;;;;;;;13.46;55.35;98856.75;5115542;28;19969;-64
2023/03/26 09:56:26;;;;;;;;;;;;;;;13.51;54.73;98848.03;5115857;28;19927;-63
2023/03/26 09:59:01;;;;;;;;;;;;;;;13.59;54.13;98842.72;5115541;28;20273;-63
2023/03/26 10:01:34;;;;;;;;;;;;;;;13.79;53.90;98830.22;5115508;28;19962;-63
2023/03/26 10:04:27;;;;;;;;;;;;;;;13.89;53.69;98835.03;5114017;28;19919;-63
2023/03/26 10:07:01;;;;;;;;;;;;;;;14.13;53.47;98830.09;5114664;28;19959;-63
2023/03/26 10:09:37;;;;;;;;;;;;;;;14.15;53.13;98824.06;5115231;28;19927;-63
2023/03/26 10:12:21;;;;;;;;;;;;;;;14.24;52.62;98818.66;5115216;28;19923;-63
2023/03/26 10:14:59;;;;;;;;;;;;;;;14.38;52.39;98813.97;5115220;28;19951;-64
2023/03/26 10:17:35;;;;;;;;;;;;;;;14.77;52.16;98805.06;5115028;28;19930;-64
2023/03/26 10:20:12;;;;;;;;;;;;;;;14.91;51.58;98801.19;5114890;28;19919;-64
2023/03/26 10:22:49;;;;;;;;;;;;;;;14.81;51.13;98794.66;5115287;28;20373;-64
2023/03/26 10:25:25;;;;;;;;;;;;;;;15.07;50.58;98792.09;5114696;28;19920;-63
2023/03/26 10:28:00;;;;;;;;;;;;;;;15.29;50.02;98793.03;5115344;28;19920;-64
2023/03/26 10:30:38;;;;;;;;;;;;;;;15.32;50.22;98793.78;5114877;28;20022;-63
2023/03/26 10:33:14;;;;;;;;;;;;;;;15.21;49.98;98790.72;5115382;28;20342;-64
2023/03/26 10:35:50;;;;;;;;;;;;;;;15.04;50.19;98787.06;5114809;28;19927;-64
2023/03/26 10:38:25;;;;;;;;;;;;;;;14.98;50.75;98784.69;5114915;28;19923;-63
2023/03/26 10:41:00;;;;;;;;;;;;;;;14.87;49.88;98786.78;5115064;28;20018;-64
2023/03/26 10:43:39;;;;;;;;;;;;;;;14.72;49.45;98786.38;5114629;28;19920;-63
2023/03/26 10:46:18;;;;;;;;;;;;;;;14.65;49.53;98774.63;5114625;28;19919;-64
2023/03/26 10:49:02;;;;;;;;;;;;;;;14.55;49.75;98778.34;5114866;28;19935;-63
2023/03/26 10:51:47;;;;;;;;;;;;;;;14.41;50.22;98771.97;5114488;28;19920;-63
2023/03/26 10:54:22;;;;;;;;;;;;;;;14.38;50.33;98765.19;5114466;28;20018;-63
2023/03/26 10:56:51;;;;;;;;;;;;;;;14.29;50.60;98768.00;5114701;28;19920;-63
2023/03/26 10:59:20;;;;;;;;;;;;;;;14.17;50.72;98760.69;5114222;28;19920;-63
2023/03/26 11:02:00;;;;;;;;;;;;;;;14.07;50.75;98762.69;5114877;28;19927;-63
2023/03/26 11:04:35;;;;;;;;;;;;;;;14.01;51.54;98759.47;5114339;28;20430;-63
2023/03/26 11:07:09;;;;;;;;;;;;;;;14.01;51.73;98747.44;5114386;28;19920;-63
2023/03/26 11:09:44;;;;;;;;;;;;;;;14.16;51.44;98738.47;5114270;28;19920;-63
2023/03/26 11:12:18;;;;;;;;;;;;;;;14.58;50.63;98731.19;5114405;28;19919;-63
2023/03/26 11:15:03;;;;;;;;;;;;;;;15.08;49.54;98721.81;5114282;28;19920;-63
2023/03/26 11:17:37;;;;;;;;;;;;;;;15.54;48.89;98715.94;5118091;28;20006;-64
2023/03/26 11:20:10;;;;;;;;;;;;;;;15.76;47.70;98716.81;5118881;28;20280;-64
2023/03/26 11:22:46;;;;;;;;;;;;;;;15.99;46.87;98712.50;5118471;28;19920;-63
2023/03/26 11:25:30;;;;;;;;;;;;;;;16.22;46.18;98705.63;5118357;27;19923;-65
2023/03/26 11:28:08;;;;;;;;;;;;;;;16.30;45.10;98699.25;5116056;28;20007;-64
2023/03/26 11:30:41;;;;;;;;;;;;;;;16.38;44.26;98696.38;5118283;28;19930;-64
2023/03/26 11:33:12;;;;;;;;;;;;;;;16.33;44.62;98700.88;5118370;28;19920;-65
2023/03/26 11:35:43;;;;;;;;;;;;;;;16.40;44.09;98684.28;5118613;28;19970;-64
2023/03/26 11:38:16;;;;;;;;;;;;;;;16.10;43.88;98683.75;5118096;27;19973;-64
2023/03/26 11:40:49;;;;;;;;;;;;;;;15.92;43.59;98681.91;5118120;28;19920;-64
2023/03/26 11:43:40;;;;;;;;;;;;;;;15.85;44.14;98683.03;5117623;28;20007;-64
2023/03/26 11:46:12;;;;;;;;;;;;;;;16.08;44.27;98670.94;5118111;28;19963;-64
2023/03/26 11:48:43;;;;;;;;;;;;;;;16.37;44.34;98663.78;5117931;28;20365;-64
2023/03/26 11:51:14;;;;;;;;;;;;;;;16.49;43.78;98666.72;5118307;28;19919;-64
2023/03/26 11:53:45;;;;;;;;;;;;;;;16.43;43.62;98659.25;5118194;28;20369;-64
2023/03/26 11:56:17;;;;;;;;;;;;;;;16.25;43.87;98656.56;5118193;28;19926;-63
2023/03/26 11:58:50;;;;;;;;;;;;;;;16.04;43.96;98661.69;5117660;28;19923;-64
2023/03/26 12:01:28;;;;;;;;;;;;;;;16.07;44.06;98656.41;5116374;28;19919;-64
2023/03/26 12:04:03;;;;;;;;;;;;;;;16.29;43.58;98658.13;5117728;28;19973;-64
2023/03/26 12:06:31;;;;;;;;;;;;;;;16.67;43.25;98642.81;5117628;28;19923;-64
2023/03/26 12:09:00;;;;;;;;;;;;;;;16.74;43.68;98653.69;5117605;28;19927;-64
2023/03/26 12:11:33;;;;;;;;;;;;;;;16.51;43.61;98638.31;5117790;28;20446;-64
2023/03/26 12:14:05;;;;;;;;;;;;;;;16.32;43.54;98625.34;5117550;28;19926;-64
2023/03/26 12:16:34;;;;;;;;;;;;;;;16.25;43.13;98628.25;5117584;28;19947;-64
2023/03/26 12:19:06;;;;;;;;;;;;;;;16.24;42.94;98617.13;5117948;28;19973;-64
2023/03/26 12:21:44;;;;;;;;;;;;;;;16.18;42.65;98609.63;5117797;28;19926;-64
2023/03/26 12:24:25;;;;;;;;;;;;;;;16.24;42.61;98605.97;5117188;28;19919;-64
2023/03/26 12:26:56;;;;;;;;;;;;;;;16.34;42.35;98600.38;5116629;28;19923;-64
2023/03/26 12:29:26;;;;;;;;;;;;;;;16.51;42.41;98591.94;5116317;28;19926;-64
2023/03/26 12:32:03;;;;;;;;;;;;;;;16.61;42.61;98576.06;5117242;28;20418;-64
2023/03/26 12:34:34;;;;;;;;;;;;;;;16.87;41.67;98574.94;5117135;28;19926;-64
2023/03/26 12:37:04;;;;;;;;;;;;;;;16.97;40.99;98575.38;5117444;27;19947;-63
2023/03/26 12:39:36;;;;;;;;;;;;;;;16.95;41.31;98565.16;5117034;28;19919;-64
2023/03/26 12:42:26;;;;;;;;;;;;;;;16.64;41.25;98567.38;5117352;28;20042;-64
2023/03/26 12:45:16;;;;;;;;;;;;;;;16.29;41.91;98560.28;5117763;28;19981;-64
2023/03/26 12:47:45;;;;;;;;;;;;;;;16.13;42.26;98564.38;5117193;27;19981;-63
2023/03/26 12:50:35;;;;;;;;;;;;;;;16.20;42.46;98553.75;5115063;28;19920;-63
2023/03/26 12:53:12;;;;;;;;;;;;;;;16.49;42.72;98555.13;5116702;28;20018;-64
2023/03/26 12:55:53;;;;;;;;;;;;;;;16.70;42.40;98547.34;5117278;28;19919;-63
2023/03/26 12:58:32;;;;;;;;;;;;;;;16.83;42.42;98539.91;5116644;28;20014;-63
2023/03/26 13:01:08;;;;;;;;;;;;;;;17.03;42.11;98531.28;5116537;28;19927;-63
2023/03/26 13:03:42;;;;;;;;;;;;;;;17.07;41.85;98531.09;5116971;28;20053;-64
2023/03/26 13:06:28;;;;;;;;;;;;;;;16.91;41.83;98526.69;5116676;28;20339;-64
2023/03/26 13:09:14;;;;;;;;;;;;;;;16.70;42.05;98528.47;5116329;28;19959;-63
2023/03/26 13:11:52;;;;;;;;;;;;;;;16.74;42.23;98523.13;5115326;28;20002;-63
2023/03/26 13:14:32;;;;;;;;;;;;;;;16.86;42.15;98519.16;5116391;28;19919;-63
2023/03/26 13:17:04;;;;;;;;;;;;;;;17.15;41.60;98510.13;5116108;28;19919;-65
2023/03/26 13:19:38;;;;;;;;;;;;;;;17.32;40.93;98507.59;5116300;28;19945;-64
2023/03/26 13:22:15;;;;;;;;;;;;;;;17.55;40.47;98509.94;5116402;28;19919;-64
2023/03/26 13:24:49;;;;;;;;;;;;;;;17.78;40.56;98501.13;5114687;28;19919;-64
2023/03/26 13:27:31;;;;;;;;;;;;;;;17.93;40.38;98495.19;5116284;28;20281;-64
2023/03/26 13:30:02;;;;;;;;;;;;;;;17.78;40.42;98495.94;5115967;28;19920;-64
2023/03/26 13:32:41;;;;;;;;;;;;;;;17.45;40.73;98488.03;5116354;28;19962;-64
2023/03/26 13:35:17;;;;;;;;;;;;;;;17.15;41.27;98484.34;5115870;28;19955;-64
2023/03/26 13:37:51;;;;;;;;;;;;;;;16.90;41.62;98489.75;5115969;28;20373;-63
2023/03/26 13:40:25;;;;;;;;;;;;;;;16.68;42.04;98483.88;5114895;28;19969;-63